Nearby METAR Reports

 

KEDC - Austin Exec, Texas, USA
Distance from station: SSE 10mi, 17km
Updated: Fri, 28-Feb-2020 2:35am CST
Clear
Clear
 Wind from SSW
Wind: SSW 12 mph , 19 km/h
Temperature: 41°F , 5°C
Wind Chill: 34°F , 1°C
Dew Point: 25°F , -4°C
Humidity: 53%
Barometer: 30.32 inHg , 1026.8 hPa
Clouds: Clear
Visibility: 10 miles , 16 km
2020/02/28 08:35 KEDC 280835Z AUTO 21010KT 10SM CLR 05/M04 A3032 RMK AO2
KGTU - Georgetown, Texas, USA
Distance from station: NNW 11mi, 17km
Updated: Fri, 28-Feb-2020 1:56am CST
Clear
Clear
 Wind from calm
Wind: Calm
Temperature: 37°F , 3°C
Dew Point: 25°F , -4°C
Humidity: 60%
Barometer: 30.31 inHg , 1026.4 hPa
Clouds: Clear
Visibility: 10 miles , 16 km
2020/02/28 07:56 KGTU 280756Z AUTO 00000KT 10SM CLR 03/M04 A3031 RMK AO2 SLP267 T00331039
 
KATT - Austin/Mabry, Texas, USA
Distance from station: SSW 18mi, 30km
Updated: Fri, 28-Feb-2020 1:51am CST
Clear
Clear
 Wind from SSW
Wind: SSW 3 mph , 6 km/h
Temperature: 45°F , 7°C
Dew Point: 23°F , -5°C
Humidity: 42%
Barometer: 30.33 inHg , 1027.1 hPa
Clouds: Clear
Visibility: 10 miles , 16 km
2020/02/28 07:51 KATT 280751Z AUTO 21003KT 10SM CLR 07/M05 A3033 RMK AO2 SLP270 T00671050
KRYW - Lago Vista, Texas, USA
Distance from station: W 22mi, 35km
Updated: Fri, 28-Feb-2020 2:35am CST
Clear
Clear
 Wind from WSW
Wind: WSW 9 mph , 15 km/h
Temperature: 45°F , 7°C
Wind Chill: 40°F , 4°C
Dew Point: 23°F , -5°C
Humidity: 42%
Barometer: 30.30 inHg , 1026.1 hPa
Clouds: Clear
Visibility: 10 miles , 16 km
2020/02/28 08:35 KRYW 280835Z AUTO 24008KT 10SM CLR 07/M05 A3030 RMK AO2 T00661047
 
KAUS - Austin, Texas, USA
Distance from station: S 25mi, 41km
Updated: Fri, 28-Feb-2020 1:53am CST
Few Clouds
Few Clouds
 Wind from SW
Wind: SW 7 mph , 11 km/h
Temperature: 43°F , 6°C
Wind Chill: 39°F , 4°C
Dew Point: 25°F , -4°C
Humidity: 49%
Barometer: 30.32 inHg , 1026.8 hPa
Clouds: Few Clouds
Visibility: 10 miles , 16 km
Cloud details: Few Clouds 25000 ft
2020/02/28 07:53 KAUS 280753Z 22006KT 10SM FEW250 06/M04 A3032 RMK AO2 SLP270 T00561039
KILE - Killeen Muni, Texas, USA
Distance from station: N 36mi, 58km
Updated: Fri, 28-Feb-2020 1:56am CST
Clear
Clear
 Wind from SSW
Wind: SSW 7 mph , 11 km/h
Temperature: 43°F , 6°C
Wind Chill: 39°F , 4°C
Dew Point: 25°F , -4°C
Humidity: 49%
Barometer: 30.29 inHg , 1025.7 hPa
Clouds: Clear
Visibility: 10 miles , 16 km
2020/02/28 07:56 KILE 280756Z AUTO 21006KT 10SM CLR 06/M04 A3029 RMK AO2 SLP253 T00611039
 
KGRK - Gray/Ft Hood, Texas, USA
Distance from station: NNW 38mi, 62km
Updated: Fri, 28-Feb-2020 1:58am CST
Clear
Clear
 Wind from SSW
Wind: SSW 15 mph , 24 km/h
Temperature: 46°F , 8°C
Wind Chill: 40°F , 4°C
Dew Point: 23°F , -5°C
Humidity: 40%
Barometer: 30.26 inHg , 1024.7 hPa
Clouds: Clear
Visibility: 10 miles , 16 km
2020/02/28 07:58 KGRK 280758Z AUTO 21013KT 10SM CLR 08/M05 A3026 RMK AO2 SLP247 T00811055
KBMQ - Burnet, Texas, USA
Distance from station: WNW 39mi, 64km
Updated: Fri, 28-Feb-2020 1:53am CST
Clear
Clear
 Wind from calm
Wind: Calm
Temperature: 37°F , 3°C
Dew Point: 25°F , -4°C
Humidity: 60%
Barometer: 30.31 inHg , 1026.4 hPa
Clouds: Clear
Visibility: 10 miles , 16 km
2020/02/28 07:53 KBMQ 280753Z AUTO 00000KT 10SM CLR 03/M04 A3031 RMK AO2 SLP264 T00281044
 
KHLR - Ft Hood/Killeen, Texas, USA
Distance from station: N 41mi, 66km
Updated: Fri, 28-Feb-2020 1:58am CST
Clear
Clear
 Wind from SSW
Wind: SSW 3 mph , 6 km/h
Temperature: 43°F , 6°C
Dew Point: 23°F , -5°C
Humidity: 46%
Barometer: 30.28 inHg , 1025.4 hPa
Clouds: Clear
Visibility: 10 miles , 16 km
2020/02/28 07:58 KHLR 280758Z AUTO 20003KT 10SM CLR 06/M05 A3028 RMK AO2 SLP253 T00551047
KTPL - Temple/Miller, Texas, USA
Distance from station: NNE 42mi, 68km
Updated: Fri, 28-Feb-2020 1:51am CST
Clear
Clear
 Wind from S
Wind: S 9 mph , 15 km/h
Temperature: 39°F , 4°C
Wind Chill: 33°F , 1°C
Dew Point: 27°F , -3°C
Humidity: 61%
Barometer: 30.29 inHg , 1025.7 hPa
Clouds: Clear
Visibility: 10 miles , 16 km
2020/02/28 07:51 KTPL 280751Z AUTO 18008KT 10SM CLR 04/M03 A3029 RMK AO2 SLP253 T00441033
 
KT35 - Cameron, Texas, USA
Distance from station: ENE 45mi, 72km
Updated: Fri, 28-Feb-2020 2:35am CST
Clear
Clear
 Wind from SSW
Wind: SSW 14 mph , 22 km/h, Gust: 20 mph , 31 km/h
Temperature: 45°F , 7°C
Wind Chill: 39°F , 4°C
Dew Point: 25°F , -4°C
Humidity: 46%
Barometer: 30.30 inHg , 1026.1 hPa
Clouds: Clear
Visibility: 10 miles , 16 km
2020/02/28 08:35 KT35 280835Z AUTO 21012G17KT 10SM CLR 07/M04 A3030 RMK AO2 T00691037
KDZB - Horseshoe Bay, Texas, USA
Distance from station: W 45mi, 73km
Updated: Fri, 28-Feb-2020 2:37am CST
Clear
Clear
 Wind from calm
Wind: Calm
Temperature: 36°F , 2°C
Dew Point: 27°F , -3°C
Humidity: 70%
Barometer: 30.30 inHg , 1026.1 hPa
Clouds: Clear
Visibility: 10 miles , 16 km
2020/02/28 08:37 KDZB 280837Z AUTO 00000KT 10SM CLR 02/M03 A3030 RMK AO2
 
KGYB - Giddings-Lee, Texas, USA
Distance from station: SE 45mi, 73km
Updated: Fri, 28-Feb-2020 2:35am CST
Clear
Clear
 Wind from SW
Wind: SW 5 mph , 7 km/h
Temperature: 43°F , 6°C
Wind Chill: 40°F , 4°C
Dew Point: 34°F , 1°C
Humidity: 71%
Barometer: 30.33 inHg , 1027.1 hPa
Clouds: Clear
Visibility: 10 miles , 16 km
2020/02/28 08:35 KGYB 280835Z AUTO 22004KT 10SM CLR 06/01 A3033 RMK AO2 T00600007
KHYI - San Marcos, Texas, USA
Distance from station: SSW 48mi, 78km
Updated: Fri, 28-Feb-2020 1:56am CST
Clear
Clear
 Wind from SW
Wind: SW 7 mph , 11 km/h
Temperature: 39°F , 4°C
Wind Chill: 34°F , 1°C
Dew Point: 27°F , -3°C
Humidity: 61%
Barometer: 30.35 inHg , 1027.8 hPa
Clouds: Clear
Visibility: 10 miles , 16 km
2020/02/28 07:56 KHYI 280756Z AUTO 23006KT 10SM CLR 04/M03 A3035 RMK AO2 SLP276 T00391028
 
KLZZ - Lampasas, Texas, USA
Distance from station: NW 52mi, 84km
Updated: Fri, 28-Feb-2020 2:35am CST
Clear
Clear
 Wind from W
Wind: W 7 mph , 11 km/h
Temperature: 45°F , 7°C
Wind Chill: 41°F , 5°C
Dew Point: 23°F , -5°C
Humidity: 42%
Barometer: 30.27 inHg , 1025.1 hPa
Clouds: Clear
Visibility: 10 miles , 16 km
2020/02/28 08:35 KLZZ 280835Z AUTO 27006KT 10SM CLR 07/M05 A3027 RMK AO2 T00721052
KRWV - Caldwell, Texas, USA
Distance from station: E 54mi, 87km
Updated: Fri, 28-Feb-2020 2:30am CST
Clear
Clear
 Wind from SW
Wind: SW 9 mph , 15 km/h
Temperature: 39°F , 4°C
Wind Chill: 33°F , 1°C
Dew Point: 30°F , -1°C
Humidity: 70%
Barometer: 30.32 inHg , 1026.8 hPa
Clouds: Clear
Visibility: 10 miles , 16 km
2020/02/28 08:30 KRWV 280830Z AUTO 22008KT 10SM CLR 04/M01 A3032 RMK AO2 T00381010
 
K3T5 - La Grange, Texas, USA
Distance from station: SE 59mi, 95km
Updated: Fri, 28-Feb-2020 2:35am CST
Clear
Clear
 Wind from calm
Wind: Calm
Temperature: 41°F , 5°C
Dew Point: 32°F , 0°C
Humidity: 70%
Barometer: 30.32 inHg , 1026.8 hPa
Clouds: Clear
Visibility: 10 miles , 16 km
2020/02/28 08:35 K3T5 280835Z AUTO 00000KT 10SM CLR 05/00 A3032 RMK AO2 T00450000
KGOP - Gatesville, Texas, USA
Distance from station: N 61mi, 99km
Updated: Fri, 28-Feb-2020 2:35am CST
Clear
Clear
 Wind from NNW
Wind: NNW 3 mph , 6 km/h
Temperature: 37°F , 3°C
Dew Point: 25°F , -4°C
Humidity: 60%
Barometer: 30.31 inHg , 1026.4 hPa
Clouds: Clear
Visibility: 10 miles , 16 km
2020/02/28 08:35 KGOP 280835Z AUTO 33003KT 10SM CLR 03/M04 A3031 RMK AO2
 
KLHB - Hearne Muni, Texas, USA
Distance from station: ENE 63mi, 101km
Updated: Fri, 28-Feb-2020 2:35am CST
Clear
Clear
 Wind from S
Wind: S 5 mph , 7 km/h
Temperature: 41°F , 5°C
Wind Chill: 38°F , 3°C
Dew Point: 28°F , -2°C
Humidity: 61%
Barometer: 30.32 inHg , 1026.8 hPa
Clouds: Clear
Visibility: 10 miles , 16 km
2020/02/28 08:35 KLHB 280835Z AUTO 17004KT 10SM CLR 05/M02 A3032 RMK AO2 T00461024
KBAZ - New Braunfels, Texas, USA
Distance from station: SSW 63mi, 102km
Updated: Fri, 28-Feb-2020 1:51am CST
Clear
Clear
 Wind from WSW
Wind: WSW 10 mph , 17 km/h
Temperature: 43°F , 6°C
Wind Chill: 37°F , 3°C
Dew Point: 27°F , -3°C
Humidity: 53%
Barometer: 30.33 inHg , 1027.1 hPa
Clouds: Clear
Visibility: 10 miles , 16 km
2020/02/28 07:51 KBAZ 280751Z AUTO 24009KT 10SM CLR 06/M03 A3033 RMK AO2 SLP271 T00611033